Time;durP1;ratioP1;P1;durP2;ratioP2;P2;SDS_P1;SDS_P2;PMS_P1;PMS_P2;Temp;Humidity;BMP_temperature;BMP_pressure;BME280_temperature;BME280_humidity;BME280_pressure;Samples;Min_cycle;Max_cycle;Signal;HPM_P1;HPM_P2
2022/12/29 00:02:39;;;;;;;2.77;1.20;;;14.80;98.20;;;;;;10518518;28;20481;-23
2022/12/29 00:07:41;;;;;;;1.33;0.80;;;13.70;99.90;;;;;;10516558;28;20529;-26
2022/12/29 00:18:06;;;;;;;2.70;1.00;;;14.60;98.40;;;;;;10481662;28;20067;-24
2022/12/29 00:44:32;;;;;;;1.35;1.10;;;13.60;99.90;;;;;;10523287;28;20052;-25
2022/12/29 00:49:35;;;;;;;1.50;1.17;;;13.20;99.90;;;;;;10518774;28;20151;-27
2022/12/29 00:54:39;;;;;;;3.67;1.33;;;13.20;99.90;;;;;;10522423;28;20088;-24
2022/12/29 00:59:43;;;;;;;2.28;0.90;;;12.50;99.90;;;;;;10530912;28;20062;-24
2022/12/29 01:04:46;;;;;;;2.20;1.00;;;13.50;99.90;;;;;;10523250;28;20068;-24
2022/12/29 01:15:08;;;;;;;3.47;1.08;;;11.80;99.90;;;;;;10530170;28;20492;-24
2022/12/29 01:20:13;;;;;;;2.22;1.00;;;11.90;99.90;;;;;;10530628;28;20519;-24
2022/12/29 01:25:15;;;;;;;4.20;0.60;;;11.80;99.90;;;;;;10521481;28;20078;-24
2022/12/29 01:30:17;;;;;;;3.20;0.70;;;11.50;99.90;;;;;;10519063;28;20117;-25
2022/12/29 01:35:20;;;;;;;3.58;1.08;;;12.40;99.90;;;;;;10520849;28;20058;-24
2022/12/29 01:40:22;;;;;;;2.63;0.73;;;11.60;99.90;;;;;;10528610;28;20055;-22
2022/12/29 01:45:24;;;;;;;5.15;1.10;;;12.00;99.90;;;;;;10532283;28;20378;-25
2022/12/29 01:50:31;;;;;;;8.33;0.93;;;11.70;99.90;;;;;;10517520;28;20058;-24
2022/12/29 01:55:37;;;;;;;4.53;0.90;;;12.00;99.90;;;;;;10522176;28;20101;-26
2022/12/29 02:00:39;;;;;;;5.68;1.35;;;11.50;99.90;;;;;;10514863;28;20135;-24
2022/12/29 02:05:48;;;;;;;8.80;1.50;;;11.80;99.90;;;;;;10504508;28;20074;-24
2022/12/29 02:10:50;;;;;;;8.85;1.60;;;11.70;99.90;;;;;;10518629;28;20133;-25
2022/12/29 02:16:03;;;;;;;9.88;2.05;;;11.30;99.90;;;;;;10510652;28;20502;-25
2022/12/29 02:21:36;;;;;;;8.15;1.63;;;10.80;99.90;;;;;;10533058;28;20608;-25
2022/12/29 02:26:51;;;;;;;12.02;1.27;;;10.50;99.90;;;;;;10519342;28;20465;-25
2022/12/29 02:31:59;;;;;;;21.17;2.03;;;10.90;99.90;;;;;;10517000;28;20416;-25
2022/12/29 02:37:08;;;;;;;14.77;1.98;;;10.30;99.90;;;;;;10521600;28;20094;-25
2022/12/29 02:42:19;;;;;;;12.57;1.88;;;11.20;99.90;;;;;;10534299;28;20043;-24
2022/12/29 02:47:31;;;;;;;11.25;1.50;;;11.20;99.90;;;;;;10523612;28;20088;-24
2022/12/29 02:52:38;;;;;;;22.60;4.53;;;10.60;99.90;;;;;;10521059;28;20075;-23
2022/12/29 02:57:40;;;;;;;10.90;2.45;;;11.70;99.90;;;;;;10511767;28;20040;-24
2022/12/29 03:03:17;;;;;;;24.15;2.70;;;11.50;99.90;;;;;;10536556;28;20086;-23
2022/12/29 03:08:30;;;;;;;19.90;2.28;;;10.90;99.90;;;;;;10514808;28;20079;-24
2022/12/29 03:19:05;;;;;;;14.25;2.25;;;11.50;99.90;;;;;;10520180;28;20056;-25
2022/12/29 03:24:09;;;;;;;21.88;2.35;;;10.60;99.90;;;;;;10518082;28;20041;-23
2022/12/29 03:29:11;;;;;;;10.55;1.73;;;10.60;99.90;;;;;;10525030;28;20405;-25
2022/12/29 03:34:16;;;;;;;15.05;1.70;;;11.00;99.90;;;;;;10540017;28;20048;-25
2022/12/29 03:39:22;;;;;;;10.70;1.55;;;10.90;99.90;;;;;;10530827;28;20084;-25
2022/12/29 03:44:32;;;;;;;9.10;1.35;;;10.60;99.90;;;;;;10518539;28;20048;-25
2022/12/29 03:49:34;;;;;;;13.75;1.58;;;11.40;99.90;;;;;;10521878;28;20068;-25
2022/12/29 03:54:37;;;;;;;16.63;2.15;;;10.90;99.90;;;;;;10514655;28;20079;-25
2022/12/29 03:59:39;;;;;;;;;;;10.70;99.90;;;;;;10528250;28;20048;-25
2022/12/29 04:04:41;;;;;;;15.45;2.15;;;10.30;99.90;;;;;;10524629;28;19932;-24
2022/12/29 04:09:44;;;;;;;16.73;3.65;;;11.40;99.90;;;;;;10516319;28;20102;-23
2022/12/29 04:14:46;;;;;;;;;;;10.50;99.90;;;;;;10527820;28;20135;-24
2022/12/29 04:19:47;;;;;;;17.65;3.30;;;10.60;99.90;;;;;;10529623;28;19926;-24
2022/12/29 04:24:50;;;;;;;21.70;3.03;;;11.10;99.90;;;;;;10511703;28;20053;-25
2022/12/29 04:29:52;;;;;;;;;;;10.50;99.90;;;;;;10522743;28;20053;-24
2022/12/29 04:34:54;;;;;;;21.52;1.98;;;10.50;99.90;;;;;;10523165;28;19924;-28
2022/12/29 04:39:57;;;;;;;18.58;2.60;;;10.10;99.90;;;;;;10534753;28;20083;-24
2022/12/29 04:44:59;;;;;;;;;;;10.30;99.90;;;;;;10535710;28;20050;-24
2022/12/29 04:50:00;;;;;;;7.13;1.52;;;10.10;99.90;;;;;;10518836;28;19963;-25
2022/12/29 04:55:04;;;;;;;13.10;2.05;;;11.00;99.90;;;;;;10520902;28;20049;-24
2022/12/29 05:00:08;;;;;;;9.77;2.05;;;10.40;99.90;;;;;;10516347;28;20052;-24
2022/12/29 05:05:10;;;;;;;14.43;2.00;;;10.30;99.90;;;;;;10530299;28;20040;-25
2022/12/29 05:10:14;;;;;;;17.40;2.92;;;9.80;99.90;;;;;;10517076;28;20101;-23
2022/12/29 05:15:16;;;;;;;25.00;2.92;;;10.00;99.90;;;;;;10511372;28;20060;-24
2022/12/29 05:20:18;;;;;;;17.00;2.08;;;10.40;99.90;;;;;;10526615;28;20097;-24
2022/12/29 05:25:21;;;;;;;12.95;2.38;;;10.20;99.90;;;;;;10519807;28;20052;-24
2022/12/29 05:30:23;;;;;;;14.48;2.05;;;10.70;99.90;;;;;;10519773;28;20150;-24
2022/12/29 05:35:24;;;;;;;14.85;2.95;;;11.10;99.90;;;;;;10513272;28;20117;-25
2022/12/29 05:40:28;;;;;;;11.40;1.95;;;10.80;99.90;;;;;;10531197;28;20071;-24
2022/12/29 05:45:30;;;;;;;15.95;2.72;;;10.90;99.90;;;;;;10520002;28;20075;-25
2022/12/29 05:50:32;;;;;;;18.13;2.58;;;10.60;99.90;;;;;;10506687;28;20052;-24
2022/12/29 05:55:35;;;;;;;14.70;2.92;;;10.40;99.90;;;;;;10509123;28;20109;-26
2022/12/29 06:00:37;;;;;;;22.02;3.28;;;10.70;99.90;;;;;;10525660;28;20048;-23
2022/12/29 06:05:39;;;;;;;19.13;3.15;;;10.60;99.90;;;;;;10517251;28;20378;-25
2022/12/29 06:10:42;;;;;;;16.83;3.13;;;10.50;99.90;;;;;;10510512;28;20149;-23
2022/12/29 06:15:44;;;;;;;17.35;2.63;;;10.50;99.90;;;;;;10500287;28;20060;-23
2022/12/29 06:20:46;;;;;;;15.57;3.40;;;10.50;99.90;;;;;;10499995;28;20052;-24
2022/12/29 06:25:49;;;;;;;31.67;4.40;;;10.70;99.90;;;;;;10520388;28;20079;-24
2022/12/29 06:30:51;;;;;;;;;;;10.10;99.90;;;;;;10511153;28;20614;-24
2022/12/29 06:35:53;;;;;;;35.78;4.32;;;10.00;99.90;;;;;;10513134;28;19955;-25
2022/12/29 06:40:56;;;;;;;38.05;3.92;;;9.90;99.90;;;;;;10498885;28;20427;-23
2022/12/29 06:45:58;;;;;;;;;;;10.10;99.90;;;;;;10499816;28;20047;-24
2022/12/29 06:50:59;;;;;;;18.65;3.50;;;10.40;99.90;;;;;;10496803;28;20019;-25
2022/12/29 06:56:02;;;;;;;21.73;3.65;;;10.60;99.90;;;;;;10497970;28;20147;-25
2022/12/29 07:01:04;;;;;;;11.32;2.10;;;10.80;99.90;;;;;;10500798;28;20043;-23
2022/12/29 07:15:29;;;;;;;16.10;1.92;;;10.70;99.90;;;;;;10533204;27;20125;-27
2022/12/29 07:20:31;;;;;;;;;;;10.50;99.90;;;;;;10542740;28;20153;-24
2022/12/29 07:25:34;;;;;;;22.23;3.35;;;10.70;99.90;;;;;;10547316;28;19924;-25
2022/12/29 07:30:38;;;;;;;;;;;10.60;99.90;;;;;;10535448;28;20048;-24
2022/12/29 07:35:40;;;;;;;16.25;3.83;;;11.20;99.90;;;;;;10525824;28;20656;-24
2022/12/29 07:40:42;;;;;;;18.70;3.22;;;11.60;99.90;;;;;;10535611;28;20105;-25
2022/12/29 07:45:45;;;;;;;17.73;2.75;;;11.20;99.90;;;;;;10546338;28;20083;-25
2022/12/29 07:50:47;;;;;;;12.65;2.10;;;10.80;99.90;;;;;;10546707;28;20052;-25
2022/12/29 07:55:49;;;;;;;21.40;3.53;;;10.90;99.90;;;;;;10542493;28;20108;-25
2022/12/29 08:00:55;;;;;;;23.85;3.65;;;10.90;99.90;;;;;;10543639;28;20071;-25
2022/12/29 08:05:58;;;;;;;8.75;1.55;;;10.50;99.90;;;;;;10554784;28;20131;-23
2022/12/29 08:10:59;;;;;;;25.40;3.90;;;11.80;99.90;;;;;;10554854;28;20060;-24
2022/12/29 08:16:03;;;;;;;19.50;2.83;;;10.40;99.90;;;;;;10552066;28;20048;-26
2022/12/29 08:21:05;;;;;;;15.50;2.38;;;10.70;99.90;;;;;;10553207;28;20131;-24
2022/12/29 08:26:07;;;;;;;17.83;3.13;;;10.30;99.90;;;;;;10531109;28;20052;-25
2022/12/29 08:31:11;;;;;;;15.88;2.67;;;10.60;99.90;;;;;;10522662;28;20144;-25
2022/12/29 08:36:12;;;;;;;22.77;2.80;;;10.10;99.90;;;;;;10525623;28;20660;-25
2022/12/29 08:41:14;;;;;;;11.15;1.63;;;10.70;99.90;;;;;;10521696;28;20097;-24
2022/12/29 08:46:18;;;;;;;30.65;3.03;;;10.60;99.90;;;;;;10527247;28;20079;-25
2022/12/29 08:51:20;;;;;;;25.60;2.88;;;9.90;99.90;;;;;;10520198;28;20044;-25
2022/12/29 08:56:23;;;;;;;22.63;3.83;;;10.00;99.90;;;;;;10513165;28;20048;-25
2022/12/29 09:01:26;;;;;;;;;;;10.30;99.90;;;;;;10527128;28;20075;-24
2022/12/29 09:06:28;;;;;;;21.25;2.78;;;10.00;99.90;;;;;;10527284;28;19981;-25
2022/12/29 09:11:30;;;;;;;23.17;2.67;;;10.20;99.90;;;;;;10522291;28;20416;-24
2022/12/29 09:16:34;;;;;;;28.33;4.70;;;10.70;99.90;;;;;;10519716;28;20040;-24
2022/12/29 09:21:36;;;;;;;40.05;6.35;;;10.20;99.90;;;;;;10521293;28;20514;-24
2022/12/29 09:26:38;;;;;;;27.02;3.90;;;10.40;99.90;;;;;;10518293;28;20052;-25
2022/12/29 09:31:41;;;;;;;38.23;3.97;;;10.80;99.90;;;;;;10526904;28;20047;-25
2022/12/29 09:36:43;;;;;;;;;;;10.60;99.90;;;;;;10525346;28;20713;-27
2022/12/29 09:41:50;;;;;;;36.10;7.38;;;10.50;99.90;;;;;;10517814;28;19942;-24
2022/12/29 09:46:56;;;;;;;36.45;6.25;;;10.90;99.90;;;;;;10527831;28;20487;-25
2022/12/29 09:52:04;;;;;;;49.67;7.88;;;10.80;99.90;;;;;;10529373;28;20044;-25
2022/12/29 09:57:15;;;;;;;39.22;6.97;;;9.80;99.90;;;;;;10516065;28;20072;-24
2022/12/29 10:02:31;;;;;;;48.63;7.57;;;10.30;99.90;;;;;;10498118;28;20129;-27
2022/12/29 10:07:41;;;;;;;37.97;5.20;;;10.10;99.90;;;;;;10510535;28;20119;-24
2022/12/29 10:12:56;;;;;;;42.03;7.72;;;10.10;99.90;;;;;;10512979;28;20092;-27
2022/12/29 10:18:11;;;;;;;38.75;5.35;;;11.30;99.90;;;;;;10527816;28;20048;-24
2022/12/29 10:23:27;;;;;;;58.40;7.05;;;10.30;99.90;;;;;;10520838;28;20519;-24
2022/12/29 10:28:38;;;;;;;41.22;5.60;;;9.60;99.90;;;;;;10518634;28;20714;-24
2022/12/29 10:33:43;;;;;;;33.85;5.65;;;10.10;99.90;;;;;;10514799;28;20091;-25
2022/12/29 10:38:52;;;;;;;40.53;5.28;;;10.10;99.90;;;;;;10515790;28;20071;-25
2022/12/29 10:43:57;;;;;;;26.20;3.90;;;10.50;99.90;;;;;;10521427;28;20100;-24
2022/12/29 10:49:01;;;;;;;22.63;3.53;;;10.40;99.90;;;;;;10518458;28;20052;-25
2022/12/29 10:54:07;;;;;;;47.20;5.55;;;11.00;99.90;;;;;;10517748;28;20047;-26
2022/12/29 10:59:18;;;;;;;32.63;5.28;;;10.60;99.90;;;;;;10516601;28;20555;-27
2022/12/29 11:04:44;;;;;;;34.35;5.55;;;10.40;99.90;;;;;;10520174;28;20492;-24
2022/12/29 11:09:47;;;;;;;30.77;3.85;;;10.00;99.90;;;;;;10517452;28;20044;-27
2022/12/29 11:15:01;;;;;;;38.30;4.88;;;10.20;99.90;;;;;;10514306;28;20120;-23
2022/12/29 11:20:27;;;;;;;28.92;4.88;;;10.30;99.90;;;;;;10509045;28;20549;-24
2022/12/29 11:25:30;;;;;;;21.42;3.00;;;10.20;99.90;;;;;;10522565;28;20613;-27
2022/12/29 11:30:33;;;;;;;24.95;4.75;;;10.50;99.90;;;;;;10527767;28;20139;-24
2022/12/29 11:35:40;;;;;;;;;;;9.90;99.90;;;;;;10524288;28;20150;-26
2022/12/29 11:40:42;;;;;;;12.18;2.30;;;10.40;99.90;;;;;;10528238;28;19924;-24
2022/12/29 11:45:47;;;;;;;18.75;2.63;;;10.20;99.90;;;;;;10525988;28;20075;-25
2022/12/29 11:50:54;;;;;;;26.02;3.38;;;10.70;99.90;;;;;;10518961;28;20820;-25
2022/12/29 11:55:58;;;;;;;17.10;2.38;;;11.10;99.90;;;;;;10515283;28;20083;-24
2022/12/29 12:01:03;;;;;;;39.88;6.10;;;11.10;99.90;;;;;;10528053;28;20082;-26
2022/12/29 12:06:10;;;;;;;28.10;4.63;;;10.30;99.90;;;;;;10532167;28;20048;-25
2022/12/29 12:11:17;;;;;;;16.52;2.65;;;10.70;99.90;;;;;;10529371;28;20146;-25
2022/12/29 12:16:22;;;;;;;25.27;3.03;;;11.10;99.90;;;;;;10519092;28;20105;-25
2022/12/29 12:21:33;;;;;;;23.98;3.20;;;10.80;99.90;;;;;;10530865;28;20067;-25
2022/12/29 12:26:39;;;;;;;31.42;5.00;;;11.10;99.90;;;;;;10520186;28;20052;-25
2022/12/29 12:31:48;;;;;;;24.42;4.40;;;10.50;99.90;;;;;;10528907;28;20048;-27
2022/12/29 12:37:10;;;;;;;17.27;2.92;;;10.70;99.90;;;;;;10530563;28;20135;-24
2022/12/29 12:42:27;;;;;;;22.77;3.92;;;10.70;99.90;;;;;;10522448;28;20097;-25
2022/12/29 12:47:52;;;;;;;18.45;2.78;;;10.70;99.90;;;;;;10519693;28;20075;-23
2022/12/29 12:53:42;;;;;;;20.17;3.08;;;11.20;99.90;;;;;;10518584;28;20064;-27
2022/12/29 12:58:50;;;;;;;17.35;3.85;;;10.90;99.90;;;;;;10479642;28;20108;-26
2022/12/29 13:04:06;;;;;;;21.42;2.50;;;11.40;99.90;;;;;;10521427;28;20074;-24
2022/12/29 13:09:34;;;;;;;24.10;3.47;;;11.20;99.90;;;;;;10527224;28;20071;-25
2022/12/29 13:14:49;;;;;;;19.67;2.97;;;11.20;99.90;;;;;;10526854;28;20101;-24
2022/12/29 13:19:57;;;;;;;18.77;2.60;;;11.50;99.90;;;;;;10520569;28;20109;-24
2022/12/29 13:25:19;;;;;;;26.83;6.10;;;11.10;99.90;;;;;;10532978;28;20460;-26
2022/12/29 13:30:23;;;;;;;13.60;2.08;;;11.10;99.90;;;;;;10506740;28;20040;-23
2022/12/29 13:35:42;;;;;;;17.98;2.63;;;10.60;99.90;;;;;;10529297;28;20051;-28
2022/12/29 13:40:49;;;;;;;14.90;3.30;;;10.70;99.90;;;;;;10523361;28;20125;-25
2022/12/29 13:45:59;;;;;;;10.00;1.50;;;10.30;99.90;;;;;;10517142;28;20482;-27
2022/12/29 13:51:02;;;;;;;16.17;2.15;;;11.20;99.90;;;;;;10520993;28;20488;-25
2022/12/29 13:56:10;;;;;;;19.05;2.40;;;10.80;99.90;;;;;;10516785;28;20087;-26
2022/12/29 14:01:17;;;;;;;24.95;4.30;;;10.60;99.90;;;;;;10510935;28;20484;-25
2022/12/29 14:06:25;;;;;;;17.30;1.80;;;10.70;99.90;;;;;;10531473;28;20043;-25
2022/12/29 14:11:33;;;;;;;17.13;2.17;;;11.30;99.90;;;;;;10522053;28;20053;-24
2022/12/29 14:16:35;;;;;;;13.38;2.40;;;11.00;99.90;;;;;;10509635;28;20471;-27
2022/12/29 14:21:38;;;;;;;18.95;2.53;;;11.00;99.90;;;;;;10497882;28;20611;-24
2022/12/29 14:26:41;;;;;;;15.90;2.60;;;10.70;99.90;;;;;;10505144;28;20146;-24
2022/12/29 14:31:43;;;;;;;20.02;2.25;;;10.40;99.90;;;;;;10509165;28;20052;-26
2022/12/29 14:36:55;;;;;;;22.60;3.40;;;11.00;99.90;;;;;;10524214;28;20060;-25
2022/12/29 14:42:05;;;;;;;20.10;3.05;;;10.20;99.90;;;;;;10525985;28;20063;-25
2022/12/29 14:47:08;;;;;;;9.50;1.85;;;10.80;99.90;;;;;;10524040;28;20063;-26
2022/12/29 14:52:18;;;;;;;15.10;2.53;;;10.30;99.90;;;;;;10528074;28;20079;-25
2022/12/29 14:57:34;;;;;;;14.65;2.30;;;10.50;99.90;;;;;;10525495;28;20097;-24
2022/12/29 15:02:42;;;;;;;11.77;2.03;;;10.90;99.90;;;;;;10521443;28;20073;-25
2022/12/29 15:07:44;;;;;;;17.73;3.00;;;10.30;99.90;;;;;;10523175;28;20052;-25
2022/12/29 15:12:52;;;;;;;15.03;2.23;;;10.70;99.90;;;;;;10515673;28;20080;-25
2022/12/29 15:17:54;;;;;;;29.15;5.15;;;10.40;99.90;;;;;;10501350;28;20082;-24
2022/12/29 15:22:59;;;;;;;18.95;2.85;;;9.50;99.90;;;;;;10504388;28;20048;-24
2022/12/29 15:28:07;;;;;;;18.98;2.40;;;9.80;99.90;;;;;;10496883;28;20098;-26
2022/12/29 15:33:19;;;;;;;22.60;2.70;;;10.70;99.90;;;;;;10516067;28;20074;-23
2022/12/29 15:38:24;;;;;;;22.50;2.88;;;10.20;99.90;;;;;;10525239;28;20050;-23
2022/12/29 15:43:45;;;;;;;13.88;2.60;;;10.10;99.90;;;;;;10534572;28;20122;-25
2022/12/29 15:48:47;;;;;;;11.63;2.08;;;10.10;99.90;;;;;;10531251;28;20089;-26
2022/12/29 15:53:51;;;;;;;12.88;2.15;;;11.10;99.90;;;;;;10528020;28;20060;-27
2022/12/29 15:58:54;;;;;;;18.40;3.15;;;10.60;99.90;;;;;;10527952;28;20072;-28
2022/12/29 16:03:58;;;;;;;21.05;2.28;;;10.40;99.90;;;;;;10532348;28;20711;-27
2022/12/29 16:09:03;;;;;;;13.20;2.35;;;10.20;99.90;;;;;;10526005;28;20489;-27
2022/12/29 16:14:14;;;;;;;16.27;2.33;;;10.90;99.90;;;;;;10537441;28;20055;-27
2022/12/29 16:19:22;;;;;;;24.33;2.97;;;10.60;99.90;;;;;;10523997;28;20126;-26
2022/12/29 16:24:27;;;;;;;8.65;2.60;;;10.20;99.90;;;;;;10527704;28;20094;-27
2022/12/29 16:29:31;;;;;;;14.07;2.08;;;10.00;99.90;;;;;;10529957;28;20844;-29
2022/12/29 16:34:42;;;;;;;16.27;2.42;;;11.00;99.90;;;;;;10519447;28;20481;-26
2022/12/29 16:39:44;;;;;;;14.30;4.45;;;10.60;99.90;;;;;;10521300;28;20408;-29
2022/12/29 16:44:47;;;;;;;30.73;5.00;;;10.20;99.90;;;;;;10519274;28;20455;-26
2022/12/29 16:49:52;;;;;;;;;;;10.00;99.90;;;;;;10518447;28;20084;-27
2022/12/29 16:54:56;;;;;;;14.82;3.13;;;9.90;99.90;;;;;;10517403;28;19924;-28
2022/12/29 17:00:02;;;;;;;17.55;1.90;;;10.80;99.90;;;;;;10526265;28;20163;-27
2022/12/29 17:05:04;;;;;;;19.63;2.83;;;9.00;99.90;;;;;;10526791;28;20528;-28
2022/12/29 17:10:07;;;;;;;15.93;1.93;;;9.10;99.90;;;;;;10509048;28;20131;-28
2022/12/29 17:15:19;;;;;;;17.00;2.45;;;10.00;99.90;;;;;;10508988;28;20154;-30
2022/12/29 17:20:23;;;;;;;22.88;3.17;;;9.70;99.90;;;;;;10524299;28;20074;-26
2022/12/29 17:25:31;;;;;;;19.35;2.15;;;9.20;99.90;;;;;;10514566;28;20101;-27
2022/12/29 17:30:35;;;;;;;16.20;2.13;;;10.30;99.90;;;;;;10522035;28;20059;-27
2022/12/29 17:35:37;;;;;;;26.83;3.88;;;9.80;99.90;;;;;;10516555;28;20040;-26
2022/12/29 17:40:39;;;;;;;14.90;3.35;;;9.60;99.90;;;;;;10518770;28;20131;-29
2022/12/29 17:45:44;;;;;;;25.27;4.53;;;10.30;99.90;;;;;;10527607;28;20040;-26
2022/12/29 17:50:48;;;;;;;20.48;2.97;;;10.00;99.90;;;;;;10517800;28;20058;-26
2022/12/29 17:55:50;;;;;;;20.08;3.95;;;10.60;99.90;;;;;;10512142;28;20087;-28
2022/12/29 18:00:55;;;;;;;19.15;3.72;;;10.30;99.90;;;;;;10519808;28;20134;-27
2022/12/29 18:05:57;;;;;;;28.45;4.30;;;9.60;99.90;;;;;;10519409;28;20056;-27
2022/12/29 18:10:59;;;;;;;41.90;5.57;;;10.80;99.90;;;;;;10521049;28;20059;-29
2022/12/29 18:16:03;;;;;;;33.05;4.35;;;9.60;99.90;;;;;;10531019;28;20079;-29
2022/12/29 18:21:06;;;;;;;29.67;3.45;;;9.40;99.90;;;;;;10513428;28;20059;-26
2022/12/29 18:26:15;;;;;;;26.58;3.65;;;9.60;99.90;;;;;;10514323;28;20124;-28
2022/12/29 18:31:21;;;;;;;14.23;2.25;;;9.40;99.90;;;;;;10517221;28;20409;-26
2022/12/29 18:36:23;;;;;;;27.92;3.83;;;10.10;99.90;;;;;;10520025;28;20177;-28
2022/12/29 18:41:28;;;;;;;26.75;3.50;;;9.30;99.90;;;;;;10516400;28;20072;-28
2022/12/29 18:46:31;;;;;;;18.75;3.80;;;10.00;99.90;;;;;;10519455;28;20424;-27
2022/12/29 18:51:33;;;;;;;10.30;2.13;;;9.50;99.90;;;;;;10519865;28;20041;-29
2022/12/29 18:56:35;;;;;;;27.98;3.38;;;11.30;99.90;;;;;;10519084;28;20140;-28
2022/12/29 19:01:39;;;;;;;21.73;3.53;;;9.70;99.90;;;;;;10523828;28;20490;-26
2022/12/29 19:06:42;;;;;;;18.63;3.03;;;10.20;99.90;;;;;;10517621;28;20044;-28
2022/12/29 19:11:44;;;;;;;22.42;3.20;;;10.30;99.90;;;;;;10515931;28;20493;-27
2022/12/29 19:16:47;;;;;;;9.37;1.73;;;11.20;99.90;;;;;;10521700;28;20080;-31
2022/12/29 19:21:55;;;;;;;23.77;3.60;;;11.40;99.90;;;;;;10511422;28;20106;-30
2022/12/29 19:26:57;;;;;;;24.02;3.40;;;12.20;99.90;;;;;;10518194;28;20075;-27
2022/12/29 19:32:00;;;;;;;33.00;4.43;;;11.60;99.90;;;;;;10515418;28;20536;-28
2022/12/29 19:37:02;;;;;;;13.27;3.00;;;10.30;99.90;;;;;;10517708;28;20500;-26
2022/12/29 19:42:04;;;;;;;21.98;5.47;;;10.40;99.90;;;;;;10515828;28;20522;-28
2022/12/29 19:47:08;;;;;;;28.25;3.58;;;9.20;99.90;;;;;;10516820;28;20083;-27
2022/12/29 19:52:10;;;;;;;19.52;3.50;;;9.90;99.90;;;;;;10519544;28;20044;-27
2022/12/29 19:57:12;;;;;;;27.25;3.50;;;10.60;99.90;;;;;;10523555;28;20055;-28
2022/12/29 20:02:20;;;;;;;19.80;4.20;;;10.80;99.90;;;;;;10515115;28;20133;-28
2022/12/29 20:07:22;;;;;;;29.95;5.15;;;11.20;99.90;;;;;;10513652;28;20097;-27
2022/12/29 20:12:24;;;;;;;22.13;2.80;;;10.00;99.90;;;;;;10520058;28;20392;-25
2022/12/29 20:17:27;;;;;;;19.38;2.72;;;10.10;99.90;;;;;;10518048;28;20505;-27
2022/12/29 20:22:29;;;;;;;30.83;4.68;;;10.00;99.90;;;;;;10507150;28;20447;-27
2022/12/29 20:27:31;;;;;;;44.47;4.47;;;10.10;99.90;;;;;;10505091;28;20525;-29
2022/12/29 20:32:37;;;;;;;26.00;3.55;;;10.40;99.90;;;;;;10524187;28;20060;-26
2022/12/29 20:37:39;;;;;;;25.17;3.60;;;10.50;99.90;;;;;;10523013;28;20053;-27
2022/12/29 20:42:41;;;;;;;26.25;4.32;;;10.00;99.90;;;;;;10514701;28;20108;-27
2022/12/29 20:47:44;;;;;;;28.85;4.72;;;10.40;99.90;;;;;;10523469;28;20485;-27
2022/12/29 20:52:46;;;;;;;29.23;3.60;;;9.90;99.90;;;;;;10518124;28;20443;-29
2022/12/29 20:57:48;;;;;;;32.83;3.60;;;9.60;99.90;;;;;;10519310;28;20150;-28
2022/12/29 21:02:54;;;;;;;31.00;4.60;;;9.60;99.90;;;;;;10519910;28;20068;-27
2022/12/29 21:07:58;;;;;;;28.50;3.88;;;10.80;99.90;;;;;;10518359;28;20102;-26
2022/12/29 21:13:01;;;;;;;34.03;3.80;;;9.40;99.90;;;;;;10523967;28;20055;-29
2022/12/29 21:18:04;;;;;;;25.95;4.00;;;10.60;99.90;;;;;;10517874;28;20059;-29
2022/12/29 21:23:06;;;;;;;40.72;4.43;;;10.10;99.90;;;;;;10517931;28;20078;-28
2022/12/29 21:28:10;;;;;;;35.80;4.27;;;9.70;99.90;;;;;;10522633;28;20052;-27
2022/12/29 21:33:14;;;;;;;20.60;2.70;;;10.20;99.90;;;;;;10525388;28;21007;-28
2022/12/29 21:38:16;;;;;;;22.63;3.78;;;9.90;99.90;;;;;;10526044;28;20058;-27
2022/12/29 21:43:18;;;;;;;25.27;4.53;;;10.20;99.90;;;;;;10526133;28;20070;-28
2022/12/29 21:48:22;;;;;;;33.20;5.07;;;9.00;99.90;;;;;;10525194;28;20052;-28
2022/12/29 21:53:36;;;;;;;24.70;2.83;;;8.80;99.90;;;;;;10527777;28;20795;-30
2022/12/29 22:14:39;;;;;;;17.98;3.53;;;9.30;99.90;;;;;;10511999;28;20060;-28
2022/12/29 22:19:42;;;;;;;23.30;3.17;;;10.40;99.90;;;;;;10529615;28;20089;-26
2022/12/29 22:24:44;;;;;;;18.75;3.50;;;9.70;99.90;;;;;;10520569;28;20086;-27
2022/12/29 22:29:46;;;;;;;31.95;4.10;;;11.10;99.90;;;;;;10523507;28;20048;-27
2022/12/29 22:34:49;;;;;;;24.90;3.58;;;9.00;99.90;;;;;;10521057;28;20087;-27
2022/12/29 22:39:51;;;;;;;;;;;9.90;99.90;;;;;;10526485;28;20047;-27
2022/12/29 22:44:52;;;;;;;25.10;2.38;;;9.90;99.90;;;;;;10504463;28;20623;-27
2022/12/29 22:49:56;;;;;;;16.98;2.50;;;9.60;99.90;;;;;;10511332;28;20056;-28
2022/12/29 22:54:59;;;;;;;18.92;2.20;;;9.70;99.90;;;;;;10517520;28;20147;-28
2022/12/29 23:00:01;;;;;;;;;;;10.00;99.90;;;;;;10520219;28;20456;-31
2022/12/29 23:05:05;;;;;;;13.73;2.60;;;10.50;99.90;;;;;;10519692;28;20384;-29
2022/12/29 23:10:07;;;;;;;13.18;2.30;;;10.60;99.90;;;;;;10522476;28;20077;-27
2022/12/29 23:15:10;;;;;;;19.33;2.58;;;10.10;99.90;;;;;;10523375;28;20067;-25
2022/12/29 23:20:13;;;;;;;24.92;2.42;;;9.50;99.90;;;;;;10511971;28;20048;-31
2022/12/29 23:25:15;;;;;;;19.65;4.35;;;9.20;99.90;;;;;;10520471;28;20048;-26
2022/12/29 23:30:17;;;;;;;14.93;2.65;;;10.20;99.90;;;;;;10522557;28;20132;-30
2022/12/29 23:35:20;;;;;;;15.68;3.17;;;12.10;99.90;;;;;;10519786;28;20101;-28
2022/12/29 23:40:22;;;;;;;;;;;9.10;99.90;;;;;;10511794;28;20586;-31
2022/12/29 23:45:24;;;;;;;16.83;2.47;;;11.20;99.90;;;;;;10520367;28;20018;-26
2022/12/29 23:50:27;;;;;;;16.73;2.25;;;12.30;99.90;;;;;;10497419;28;20060;-26
2022/12/29 23:55:29;;;;;;;13.80;2.28;;;11.50;99.90;;;;;;10516790;28;20101;-27
